sensor_id;sensor_type;location;lat;lon;timestamp;P1;durP1;ratioP1;P2;durP2;ratioP2
58152;SDS011;43967;51.634;5.566;2023-09-30T00:04:54;8.10;;;2.35;;
58152;SDS011;43967;51.634;5.566;2023-09-30T00:10:15;7.32;;;2.28;;
58152;SDS011;43967;51.634;5.566;2023-09-30T00:15:37;7.00;;;2.23;;
58152;SDS011;43967;51.634;5.566;2023-09-30T00:20:58;9.03;;;2.53;;
58152;SDS011;43967;51.634;5.566;2023-09-30T00:26:19;7.60;;;2.03;;
58152;SDS011;43967;51.634;5.566;2023-09-30T00:31:40;7.63;;;2.33;;
58152;SDS011;43967;51.634;5.566;2023-09-30T00:37:02;7.10;;;2.20;;
58152;SDS011;43967;51.634;5.566;2023-09-30T00:42:23;9.25;;;2.80;;
58152;SDS011;43967;51.634;5.566;2023-09-30T00:47:44;7.97;;;2.45;;
58152;SDS011;43967;51.634;5.566;2023-09-30T00:53:06;7.57;;;2.20;;
58152;SDS011;43967;51.634;5.566;2023-09-30T00:58:28;6.72;;;2.20;;
58152;SDS011;43967;51.634;5.566;2023-09-30T01:03:49;8.55;;;2.67;;
58152;SDS011;43967;51.634;5.566;2023-09-30T01:09:11;7.80;;;2.60;;
58152;SDS011;43967;51.634;5.566;2023-09-30T01:14:33;7.80;;;2.67;;
58152;SDS011;43967;51.634;5.566;2023-09-30T01:19:56;6.88;;;2.25;;
58152;SDS011;43967;51.634;5.566;2023-09-30T01:25:19;7.10;;;2.60;;
58152;SDS011;43967;51.634;5.566;2023-09-30T01:30:40;7.87;;;2.33;;
58152;SDS011;43967;51.634;5.566;2023-09-30T01:36:01;6.82;;;2.35;;
58152;SDS011;43967;51.634;5.566;2023-09-30T01:41:23;7.60;;;2.47;;
58152;SDS011;43967;51.634;5.566;2023-09-30T01:46:44;7.47;;;2.43;;
58152;SDS011;43967;51.634;5.566;2023-09-30T01:52:05;7.93;;;2.30;;
58152;SDS011;43967;51.634;5.566;2023-09-30T01:57:26;7.95;;;2.22;;
58152;SDS011;43967;51.634;5.566;2023-09-30T02:02:48;8.90;;;2.40;;
58152;SDS011;43967;51.634;5.566;2023-09-30T02:08:09;7.40;;;2.60;;
58152;SDS011;43967;51.634;5.566;2023-09-30T02:13:33;9.13;;;2.50;;
58152;SDS011;43967;51.634;5.566;2023-09-30T02:18:55;7.43;;;2.78;;
58152;SDS011;43967;51.634;5.566;2023-09-30T02:24:16;7.70;;;2.20;;
58152;SDS011;43967;51.634;5.566;2023-09-30T02:29:37;7.00;;;2.17;;
58152;SDS011;43967;51.634;5.566;2023-09-30T02:34:58;7.45;;;2.38;;
58152;SDS011;43967;51.634;5.566;2023-09-30T02:40:20;7.20;;;2.47;;
58152;SDS011;43967;51.634;5.566;2023-09-30T02:45:41;6.68;;;2.22;;
58152;SDS011;43967;51.634;5.566;2023-09-30T02:51:02;6.88;;;2.25;;
58152;SDS011;43967;51.634;5.566;2023-09-30T02:56:24;6.67;;;2.20;;
58152;SDS011;43967;51.634;5.566;2023-09-30T03:01:45;6.70;;;2.40;;
58152;SDS011;43967;51.634;5.566;2023-09-30T03:07:06;7.75;;;2.55;;
58152;SDS011;43967;51.634;5.566;2023-09-30T03:12:27;7.35;;;2.30;;
58152;SDS011;43967;51.634;5.566;2023-09-30T03:17:49;7.43;;;2.23;;
58152;SDS011;43967;51.634;5.566;2023-09-30T03:23:10;6.63;;;2.45;;
58152;SDS011;43967;51.634;5.566;2023-09-30T03:28:31;6.55;;;2.35;;
58152;SDS011;43967;51.634;5.566;2023-09-30T03:33:53;6.90;;;2.53;;
58152;SDS011;43967;51.634;5.566;2023-09-30T03:39:14;7.88;;;2.05;;
58152;SDS011;43967;51.634;5.566;2023-09-30T03:44:35;7.18;;;2.33;;
58152;SDS011;43967;51.634;5.566;2023-09-30T03:49:56;6.50;;;2.10;;
58152;SDS011;43967;51.634;5.566;2023-09-30T03:55:18;7.50;;;2.87;;
58152;SDS011;43967;51.634;5.566;2023-09-30T04:00:39;7.18;;;2.55;;
58152;SDS011;43967;51.634;5.566;2023-09-30T04:06:01;6.85;;;2.33;;
58152;SDS011;43967;51.634;5.566;2023-09-30T04:11:22;7.00;;;2.30;;
58152;SDS011;43967;51.634;5.566;2023-09-30T04:16:44;7.28;;;2.40;;
58152;SDS011;43967;51.634;5.566;2023-09-30T04:22:05;7.13;;;2.42;;
58152;SDS011;43967;51.634;5.566;2023-09-30T04:27:26;7.10;;;2.47;;
58152;SDS011;43967;51.634;5.566;2023-09-30T04:32:47;6.78;;;2.35;;
58152;SDS011;43967;51.634;5.566;2023-09-30T04:38:09;7.22;;;2.13;;
58152;SDS011;43967;51.634;5.566;2023-09-30T04:43:30;7.63;;;2.47;;
58152;SDS011;43967;51.634;5.566;2023-09-30T04:48:51;7.83;;;2.80;;
58152;SDS011;43967;51.634;5.566;2023-09-30T04:54:12;6.88;;;2.30;;
58152;SDS011;43967;51.634;5.566;2023-09-30T04:59:34;6.65;;;2.30;;
58152;SDS011;43967;51.634;5.566;2023-09-30T05:04:55;7.33;;;2.37;;
58152;SDS011;43967;51.634;5.566;2023-09-30T05:10:16;7.00;;;2.00;;
58152;SDS011;43967;51.634;5.566;2023-09-30T05:15:38;6.70;;;2.53;;
58152;SDS011;43967;51.634;5.566;2023-09-30T05:20:59;6.60;;;2.30;;
58152;SDS011;43967;51.634;5.566;2023-09-30T05:26:20;7.13;;;2.53;;
58152;SDS011;43967;51.634;5.566;2023-09-30T05:31:42;7.78;;;2.65;;
58152;SDS011;43967;51.634;5.566;2023-09-30T05:37:03;7.47;;;2.60;;
58152;SDS011;43967;51.634;5.566;2023-09-30T05:42:24;6.23;;;2.00;;
58152;SDS011;43967;51.634;5.566;2023-09-30T05:47:45;6.60;;;2.38;;
58152;SDS011;43967;51.634;5.566;2023-09-30T05:53:07;7.00;;;2.10;;
58152;SDS011;43967;51.634;5.566;2023-09-30T05:58:28;7.13;;;2.30;;
58152;SDS011;43967;51.634;5.566;2023-09-30T06:03:49;8.20;;;2.30;;
58152;SDS011;43967;51.634;5.566;2023-09-30T06:09:11;6.32;;;2.20;;
58152;SDS011;43967;51.634;5.566;2023-09-30T06:14:32;9.33;;;2.23;;
58152;SDS011;43967;51.634;5.566;2023-09-30T06:19:54;9.00;;;3.08;;
58152;SDS011;43967;51.634;5.566;2023-09-30T06:25:15;8.85;;;2.72;;
58152;SDS011;43967;51.634;5.566;2023-09-30T06:30:37;7.13;;;2.30;;
58152;SDS011;43967;51.634;5.566;2023-09-30T06:36:00;10.20;;;2.80;;
58152;SDS011;43967;51.634;5.566;2023-09-30T06:41:21;8.82;;;2.42;;
58152;SDS011;43967;51.634;5.566;2023-09-30T06:46:42;7.10;;;2.28;;
58152;SDS011;43967;51.634;5.566;2023-09-30T06:52:04;7.37;;;2.50;;
58152;SDS011;43967;51.634;5.566;2023-09-30T06:57:25;8.65;;;2.25;;
58152;SDS011;43967;51.634;5.566;2023-09-30T07:02:47;9.68;;;2.60;;
58152;SDS011;43967;51.634;5.566;2023-09-30T07:08:09;9.13;;;2.20;;
58152;SDS011;43967;51.634;5.566;2023-09-30T07:13:30;6.75;;;2.20;;
58152;SDS011;43967;51.634;5.566;2023-09-30T07:18:52;7.57;;;2.00;;
58152;SDS011;43967;51.634;5.566;2023-09-30T07:24:13;9.13;;;2.37;;
58152;SDS011;43967;51.634;5.566;2023-09-30T07:29:34;7.43;;;2.63;;
58152;SDS011;43967;51.634;5.566;2023-09-30T07:34:55;7.70;;;2.13;;
58152;SDS011;43967;51.634;5.566;2023-09-30T07:40:17;8.52;;;2.17;;
58152;SDS011;43967;51.634;5.566;2023-09-30T07:45:38;6.97;;;2.10;;
58152;SDS011;43967;51.634;5.566;2023-09-30T07:50:59;7.28;;;2.20;;
58152;SDS011;43967;51.634;5.566;2023-09-30T07:56:20;7.10;;;2.00;;
58152;SDS011;43967;51.634;5.566;2023-09-30T08:01:42;7.67;;;2.47;;
58152;SDS011;43967;51.634;5.566;2023-09-30T08:07:03;8.80;;;2.30;;
58152;SDS011;43967;51.634;5.566;2023-09-30T08:12:24;6.72;;;2.35;;
58152;SDS011;43967;51.634;5.566;2023-09-30T08:17:46;7.33;;;1.97;;
58152;SDS011;43967;51.634;5.566;2023-09-30T08:23:07;7.77;;;2.30;;
58152;SDS011;43967;51.634;5.566;2023-09-30T08:28:28;9.32;;;2.35;;
58152;SDS011;43967;51.634;5.566;2023-09-30T08:33:50;7.38;;;2.15;;
58152;SDS011;43967;51.634;5.566;2023-09-30T08:39:11;7.53;;;2.10;;
58152;SDS011;43967;51.634;5.566;2023-09-30T08:44:32;7.47;;;2.20;;
58152;SDS011;43967;51.634;5.566;2023-09-30T08:49:54;8.25;;;2.13;;
58152;SDS011;43967;51.634;5.566;2023-09-30T08:55:17;8.43;;;2.50;;
58152;SDS011;43967;51.634;5.566;2023-09-30T09:00:39;7.60;;;2.10;;
58152;SDS011;43967;51.634;5.566;2023-09-30T09:06:00;7.07;;;2.20;;
58152;SDS011;43967;51.634;5.566;2023-09-30T09:11:22;7.23;;;2.40;;
58152;SDS011;43967;51.634;5.566;2023-09-30T09:16:54;8.10;;;2.23;;
58152;SDS011;43967;51.634;5.566;2023-09-30T09:22:16;6.68;;;2.20;;
58152;SDS011;43967;51.634;5.566;2023-09-30T09:27:37;7.30;;;2.30;;
58152;SDS011;43967;51.634;5.566;2023-09-30T09:33:00;8.10;;;2.40;;
58152;SDS011;43967;51.634;5.566;2023-09-30T09:38:22;7.45;;;2.30;;
58152;SDS011;43967;51.634;5.566;2023-09-30T09:43:43;11.20;;;3.75;;
58152;SDS011;43967;51.634;5.566;2023-09-30T09:49:06;12.30;;;4.43;;
58152;SDS011;43967;51.634;5.566;2023-09-30T09:54:27;13.32;;;3.95;;
58152;SDS011;43967;51.634;5.566;2023-09-30T09:59:50;14.07;;;5.18;;
58152;SDS011;43967;51.634;5.566;2023-09-30T10:05:13;18.37;;;5.00;;
58152;SDS011;43967;51.634;5.566;2023-09-30T10:10:36;12.77;;;5.10;;
58152;SDS011;43967;51.634;5.566;2023-09-30T10:15:57;13.48;;;4.85;;
58152;SDS011;43967;51.634;5.566;2023-09-30T10:21:19;16.60;;;4.60;;
58152;SDS011;43967;51.634;5.566;2023-09-30T10:26:40;12.50;;;4.90;;
58152;SDS011;43967;51.634;5.566;2023-09-30T10:32:01;13.43;;;4.93;;
58152;SDS011;43967;51.634;5.566;2023-09-30T10:37:23;13.20;;;4.47;;
58152;SDS011;43967;51.634;5.566;2023-09-30T10:42:45;12.37;;;4.20;;
58152;SDS011;43967;51.634;5.566;2023-09-30T10:48:53;15.45;;;4.32;;
58152;SDS011;43967;51.634;5.566;2023-09-30T10:53:52;13.65;;;3.97;;
58152;SDS011;43967;51.634;5.566;2023-09-30T11:04:45;13.73;;;4.63;;
58152;SDS011;43967;51.634;5.566;2023-09-30T11:10:07;12.50;;;4.53;;
58152;SDS011;43967;51.634;5.566;2023-09-30T11:15:28;13.55;;;3.85;;
58152;SDS011;43967;51.634;5.566;2023-09-30T11:20:50;12.40;;;4.20;;
58152;SDS011;43967;51.634;5.566;2023-09-30T11:26:31;14.20;;;4.28;;
58152;SDS011;43967;51.634;5.566;2023-09-30T11:31:53;13.10;;;3.97;;
58152;SDS011;43967;51.634;5.566;2023-09-30T11:37:14;11.30;;;3.70;;
58152;SDS011;43967;51.634;5.566;2023-09-30T11:42:35;13.05;;;4.45;;
58152;SDS011;43967;51.634;5.566;2023-09-30T11:47:57;11.02;;;3.45;;
58152;SDS011;43967;51.634;5.566;2023-09-30T11:53:19;14.07;;;4.20;;
58152;SDS011;43967;51.634;5.566;2023-09-30T11:58:40;13.20;;;3.73;;
58152;SDS011;43967;51.634;5.566;2023-09-30T12:04:02;12.38;;;4.00;;
58152;SDS011;43967;51.634;5.566;2023-09-30T12:09:23;13.15;;;3.30;;
58152;SDS011;43967;51.634;5.566;2023-09-30T12:14:45;12.23;;;3.30;;
58152;SDS011;43967;51.634;5.566;2023-09-30T12:20:06;13.90;;;3.20;;
58152;SDS011;43967;51.634;5.566;2023-09-30T12:25:28;16.08;;;3.25;;
58152;SDS011;43967;51.634;5.566;2023-09-30T12:30:49;10.73;;;2.97;;
58152;SDS011;43967;51.634;5.566;2023-09-30T12:36:10;12.23;;;2.58;;
58152;SDS011;43967;51.634;5.566;2023-09-30T12:41:31;10.88;;;2.80;;
58152;SDS011;43967;51.634;5.566;2023-09-30T12:46:53;8.87;;;2.83;;
58152;SDS011;43967;51.634;5.566;2023-09-30T12:52:14;10.00;;;2.73;;
58152;SDS011;43967;51.634;5.566;2023-09-30T12:57:35;9.20;;;2.53;;
58152;SDS011;43967;51.634;5.566;2023-09-30T13:02:57;9.30;;;2.80;;
58152;SDS011;43967;51.634;5.566;2023-09-30T13:08:18;8.50;;;2.40;;
58152;SDS011;43967;51.634;5.566;2023-09-30T13:13:39;9.70;;;3.13;;
58152;SDS011;43967;51.634;5.566;2023-09-30T13:19:01;11.32;;;2.75;;
58152;SDS011;43967;51.634;5.566;2023-09-30T13:24:22;25.70;;;3.30;;
58152;SDS011;43967;51.634;5.566;2023-09-30T13:29:44;10.38;;;2.45;;
58152;SDS011;43967;51.634;5.566;2023-09-30T13:35:06;11.10;;;2.78;;
58152;SDS011;43967;51.634;5.566;2023-09-30T13:40:28;13.03;;;3.27;;
58152;SDS011;43967;51.634;5.566;2023-09-30T13:45:49;7.60;;;2.33;;
58152;SDS011;43967;51.634;5.566;2023-09-30T13:51:10;9.85;;;2.45;;
58152;SDS011;43967;51.634;5.566;2023-09-30T13:56:31;8.80;;;2.38;;
58152;SDS011;43967;51.634;5.566;2023-09-30T14:01:53;11.97;;;2.83;;
58152;SDS011;43967;51.634;5.566;2023-09-30T14:07:14;9.93;;;2.67;;
58152;SDS011;43967;51.634;5.566;2023-09-30T14:12:36;12.80;;;3.45;;
58152;SDS011;43967;51.634;5.566;2023-09-30T14:17:57;12.80;;;3.13;;
58152;SDS011;43967;51.634;5.566;2023-09-30T14:23:18;8.57;;;2.92;;
58152;SDS011;43967;51.634;5.566;2023-09-30T14:28:40;9.57;;;2.70;;
58152;SDS011;43967;51.634;5.566;2023-09-30T14:34:01;10.57;;;2.73;;
58152;SDS011;43967;51.634;5.566;2023-09-30T14:39:22;11.27;;;3.63;;
58152;SDS011;43967;51.634;5.566;2023-09-30T14:44:44;11.23;;;3.22;;
58152;SDS011;43967;51.634;5.566;2023-09-30T14:50:06;11.38;;;3.05;;
58152;SDS011;43967;51.634;5.566;2023-09-30T14:55:30;8.23;;;2.93;;
58152;SDS011;43967;51.634;5.566;2023-09-30T15:00:52;13.00;;;2.88;;
58152;SDS011;43967;51.634;5.566;2023-09-30T15:06:13;10.90;;;2.58;;
58152;SDS011;43967;51.634;5.566;2023-09-30T15:11:35;8.83;;;2.73;;
58152;SDS011;43967;51.634;5.566;2023-09-30T15:16:56;10.05;;;2.80;;
58152;SDS011;43967;51.634;5.566;2023-09-30T15:22:17;12.13;;;2.80;;
58152;SDS011;43967;51.634;5.566;2023-09-30T15:27:38;8.73;;;2.63;;
58152;SDS011;43967;51.634;5.566;2023-09-30T15:33:00;9.93;;;3.00;;
58152;SDS011;43967;51.634;5.566;2023-09-30T15:38:21;9.75;;;2.85;;
58152;SDS011;43967;51.634;5.566;2023-09-30T15:43:42;12.80;;;2.83;;
58152;SDS011;43967;51.634;5.566;2023-09-30T15:49:03;10.13;;;3.70;;
58152;SDS011;43967;51.634;5.566;2023-09-30T15:54:25;10.38;;;3.45;;
58152;SDS011;43967;51.634;5.566;2023-09-30T15:59:46;11.10;;;3.30;;
58152;SDS011;43967;51.634;5.566;2023-09-30T16:05:07;11.80;;;3.50;;
58152;SDS011;43967;51.634;5.566;2023-09-30T16:10:29;9.25;;;2.85;;
58152;SDS011;43967;51.634;5.566;2023-09-30T16:15:50;9.07;;;2.92;;
58152;SDS011;43967;51.634;5.566;2023-09-30T16:21:12;9.77;;;2.47;;
58152;SDS011;43967;51.634;5.566;2023-09-30T16:26:33;9.43;;;2.90;;
58152;SDS011;43967;51.634;5.566;2023-09-30T16:31:54;10.05;;;2.75;;
58152;SDS011;43967;51.634;5.566;2023-09-30T16:37:16;10.70;;;2.72;;
58152;SDS011;43967;51.634;5.566;2023-09-30T16:42:37;14.70;;;3.17;;
58152;SDS011;43967;51.634;5.566;2023-09-30T16:47:58;11.25;;;2.67;;
58152;SDS011;43967;51.634;5.566;2023-09-30T16:53:20;8.52;;;2.88;;
58152;SDS011;43967;51.634;5.566;2023-09-30T16:58:41;16.43;;;3.37;;
58152;SDS011;43967;51.634;5.566;2023-09-30T17:04:02;9.60;;;3.35;;
58152;SDS011;43967;51.634;5.566;2023-09-30T17:09:24;10.00;;;3.30;;
58152;SDS011;43967;51.634;5.566;2023-09-30T17:14:45;10.13;;;2.87;;
58152;SDS011;43967;51.634;5.566;2023-09-30T17:20:07;8.97;;;3.30;;
58152;SDS011;43967;51.634;5.566;2023-09-30T17:25:28;9.00;;;2.90;;
58152;SDS011;43967;51.634;5.566;2023-09-30T17:30:50;7.35;;;3.03;;
58152;SDS011;43967;51.634;5.566;2023-09-30T17:36:11;10.10;;;2.90;;
58152;SDS011;43967;51.634;5.566;2023-09-30T17:41:32;7.68;;;2.78;;
58152;SDS011;43967;51.634;5.566;2023-09-30T17:46:54;12.57;;;3.30;;
58152;SDS011;43967;51.634;5.566;2023-09-30T17:52:15;11.73;;;3.57;;
58152;SDS011;43967;51.634;5.566;2023-09-30T17:57:36;7.85;;;2.90;;
58152;SDS011;43967;51.634;5.566;2023-09-30T18:02:57;9.32;;;3.15;;
58152;SDS011;43967;51.634;5.566;2023-09-30T18:08:20;7.53;;;2.83;;
58152;SDS011;43967;51.634;5.566;2023-09-30T18:13:41;8.10;;;2.97;;
58152;SDS011;43967;51.634;5.566;2023-09-30T18:19:02;9.05;;;3.15;;
58152;SDS011;43967;51.634;5.566;2023-09-30T18:24:24;11.20;;;3.50;;
58152;SDS011;43967;51.634;5.566;2023-09-30T18:29:45;8.40;;;3.07;;
58152;SDS011;43967;51.634;5.566;2023-09-30T18:35:06;8.48;;;2.83;;
58152;SDS011;43967;51.634;5.566;2023-09-30T18:40:28;8.73;;;3.08;;
58152;SDS011;43967;51.634;5.566;2023-09-30T18:45:50;7.70;;;2.63;;
58152;SDS011;43967;51.634;5.566;2023-09-30T18:51:17;10.60;;;3.70;;
58152;SDS011;43967;51.634;5.566;2023-09-30T18:56:39;10.60;;;3.00;;
58152;SDS011;43967;51.634;5.566;2023-09-30T19:02:01;8.57;;;3.17;;
58152;SDS011;43967;51.634;5.566;2023-09-30T19:07:22;8.97;;;3.20;;
58152;SDS011;43967;51.634;5.566;2023-09-30T19:12:43;9.25;;;3.13;;
58152;SDS011;43967;51.634;5.566;2023-09-30T19:18:04;8.95;;;3.15;;
58152;SDS011;43967;51.634;5.566;2023-09-30T19:23:26;8.73;;;3.17;;
58152;SDS011;43967;51.634;5.566;2023-09-30T19:28:47;10.63;;;3.13;;
58152;SDS011;43967;51.634;5.566;2023-09-30T19:34:08;8.88;;;3.60;;
58152;SDS011;43967;51.634;5.566;2023-09-30T19:39:30;9.07;;;3.40;;
58152;SDS011;43967;51.634;5.566;2023-09-30T19:44:52;12.80;;;3.60;;
58152;SDS011;43967;51.634;5.566;2023-09-30T19:50:13;10.48;;;3.53;;
58152;SDS011;43967;51.634;5.566;2023-09-30T19:55:35;9.40;;;3.67;;
58152;SDS011;43967;51.634;5.566;2023-09-30T20:00:56;8.73;;;3.27;;
58152;SDS011;43967;51.634;5.566;2023-09-30T20:06:17;8.88;;;3.45;;
58152;SDS011;43967;51.634;5.566;2023-09-30T20:11:39;8.68;;;3.65;;
58152;SDS011;43967;51.634;5.566;2023-09-30T20:17:01;10.43;;;3.70;;
58152;SDS011;43967;51.634;5.566;2023-09-30T20:22:22;10.05;;;3.92;;
58152;SDS011;43967;51.634;5.566;2023-09-30T20:27:43;10.23;;;3.75;;
58152;SDS011;43967;51.634;5.566;2023-09-30T20:33:05;10.63;;;3.80;;
58152;SDS011;43967;51.634;5.566;2023-09-30T20:38:26;8.63;;;3.25;;
58152;SDS011;43967;51.634;5.566;2023-09-30T20:43:47;9.88;;;3.40;;
58152;SDS011;43967;51.634;5.566;2023-09-30T20:49:08;9.20;;;3.40;;
58152;SDS011;43967;51.634;5.566;2023-09-30T20:54:30;8.70;;;4.03;;
58152;SDS011;43967;51.634;5.566;2023-09-30T20:59:51;10.25;;;3.90;;
58152;SDS011;43967;51.634;5.566;2023-09-30T21:05:12;9.88;;;3.80;;
58152;SDS011;43967;51.634;5.566;2023-09-30T21:10:34;7.90;;;3.40;;
58152;SDS011;43967;51.634;5.566;2023-09-30T21:15:55;10.02;;;3.88;;
58152;SDS011;43967;51.634;5.566;2023-09-30T21:21:18;8.60;;;3.50;;
58152;SDS011;43967;51.634;5.566;2023-09-30T21:26:39;10.20;;;3.80;;
58152;SDS011;43967;51.634;5.566;2023-09-30T21:32:00;9.00;;;3.40;;
58152;SDS011;43967;51.634;5.566;2023-09-30T21:37:21;8.57;;;3.50;;
58152;SDS011;43967;51.634;5.566;2023-09-30T21:42:43;10.30;;;3.70;;
58152;SDS011;43967;51.634;5.566;2023-09-30T21:48:04;8.67;;;3.73;;
58152;SDS011;43967;51.634;5.566;2023-09-30T21:53:26;9.00;;;3.70;;
58152;SDS011;43967;51.634;5.566;2023-09-30T21:58:47;8.90;;;3.72;;
58152;SDS011;43967;51.634;5.566;2023-09-30T22:04:08;9.60;;;3.53;;
58152;SDS011;43967;51.634;5.566;2023-09-30T22:09:29;10.52;;;3.95;;
58152;SDS011;43967;51.634;5.566;2023-09-30T22:14:51;9.10;;;3.60;;
58152;SDS011;43967;51.634;5.566;2023-09-30T22:20:12;9.37;;;3.83;;
58152;SDS011;43967;51.634;5.566;2023-09-30T22:25:33;8.57;;;3.95;;
58152;SDS011;43967;51.634;5.566;2023-09-30T22:30:55;8.45;;;3.53;;
58152;SDS011;43967;51.634;5.566;2023-09-30T22:36:16;8.43;;;3.80;;
58152;SDS011;43967;51.634;5.566;2023-09-30T22:41:37;10.00;;;3.77;;
58152;SDS011;43967;51.634;5.566;2023-09-30T22:46:59;9.25;;;3.85;;
58152;SDS011;43967;51.634;5.566;2023-09-30T22:52:20;9.25;;;3.78;;
58152;SDS011;43967;51.634;5.566;2023-09-30T22:57:42;9.73;;;3.93;;
58152;SDS011;43967;51.634;5.566;2023-09-30T23:03:04;10.15;;;4.20;;
58152;SDS011;43967;51.634;5.566;2023-09-30T23:08:25;10.07;;;4.05;;
58152;SDS011;43967;51.634;5.566;2023-09-30T23:13:46;8.87;;;4.10;;
58152;SDS011;43967;51.634;5.566;2023-09-30T23:19:08;9.68;;;4.03;;
58152;SDS011;43967;51.634;5.566;2023-09-30T23:24:29;12.07;;;4.68;;
58152;SDS011;43967;51.634;5.566;2023-09-30T23:29:50;9.80;;;3.93;;
58152;SDS011;43967;51.634;5.566;2023-09-30T23:35:11;8.20;;;4.20;;
58152;SDS011;43967;51.634;5.566;2023-09-30T23:40:34;8.98;;;4.10;;
58152;SDS011;43967;51.634;5.566;2023-09-30T23:45:55;10.23;;;4.32;;
58152;SDS011;43967;51.634;5.566;2023-09-30T23:51:17;10.17;;;3.60;;
58152;SDS011;43967;51.634;5.566;2023-09-30T23:56:38;9.45;;;4.00;;
